Time;durP1;ratioP1;P1;durP2;ratioP2;P2;SDS_P1;SDS_P2;PMS_P1;PMS_P2;Temp;Humidity;BMP_temperature;BMP_pressure;BME280_temperature;BME280_humidity;BME280_pressure;Samples;Min_cycle;Max_cycle;Signal;HPM_P1;HPM_P2
2021/06/09 00:01:04;;;;;;;1.30;1.20;;;18.60;99.90;;;;;;5092316;28;20022;-72
2021/06/09 00:03:30;;;;;;;1.40;1.30;;;18.50;99.90;;;;;;5092630;28;20028;-75
2021/06/09 00:05:56;;;;;;;1.60;1.50;;;18.60;99.90;;;;;;5092834;28;20027;-77
2021/06/09 00:08:22;;;;;;;1.30;1.20;;;18.60;99.90;;;;;;5092403;28;20035;-76
2021/06/09 00:10:50;;;;;;;1.65;1.55;;;18.60;99.90;;;;;;5093061;28;20024;-77
2021/06/09 00:13:17;;;;;;;2.40;2.20;;;18.60;99.90;;;;;;5092728;28;20051;-77
2021/06/09 00:15:43;;;;;;;1.40;1.30;;;18.40;99.90;;;;;;5092139;28;20457;-77
2021/06/09 00:18:09;;;;;;;1.50;1.40;;;18.10;99.90;;;;;;5092483;28;20464;-76
2021/06/09 00:20:35;;;;;;;2.00;1.80;;;18.10;99.90;;;;;;5092072;28;20441;-77
2021/06/09 00:23:00;;;;;;;1.40;1.30;;;18.10;99.90;;;;;;5092244;28;20494;-76
2021/06/09 00:25:26;;;;;;;2.50;2.30;;;17.60;99.90;;;;;;5092242;28;20825;-77
2021/06/09 00:27:54;;;;;;;1.90;1.80;;;17.40;99.90;;;;;;5092465;28;20073;-77
2021/06/09 00:30:30;;;;;;;1.50;1.40;;;17.20;99.90;;;;;;5092040;28;20111;-75
2021/06/09 00:32:57;;;;;;;1.95;1.83;;;17.20;99.90;;;;;;5092519;28;20051;-76
2021/06/09 00:35:23;;;;;;;2.00;1.90;;;17.80;99.90;;;;;;5092497;28;20028;-77
2021/06/09 00:37:49;;;;;;;1.50;1.40;;;18.10;99.90;;;;;;5092083;28;20105;-77
2021/06/09 00:40:15;;;;;;;2.35;2.15;;;18.20;99.90;;;;;;5092110;28;20024;-77
2021/06/09 00:43:21;;;;;;;1.40;1.30;;;18.10;99.90;;;;;;5073954;28;20020;-77
2021/06/09 00:46:02;;;;;;;2.13;2.00;;;18.10;99.90;;;;;;5090874;28;20039;-75
2021/06/09 00:48:30;;;;;;;1.60;1.50;;;18.10;99.90;;;;;;5092014;28;20020;-74
2021/06/09 00:51:01;;;;;;;1.70;1.60;;;17.90;99.90;;;;;;5091699;28;20675;-75
2021/06/09 00:53:28;;;;;;;1.40;1.30;;;17.80;99.90;;;;;;5092051;28;20055;-77
2021/06/09 00:56:03;;;;;;;1.90;1.80;;;17.70;99.90;;;;;;5091751;28;20506;-78
2021/06/09 00:58:30;;;;;;;2.05;1.85;;;17.50;99.90;;;;;;5091815;28;20503;-75
2021/06/09 01:00:56;;;;;;;1.42;1.33;;;17.50;99.90;;;;;;5091352;28;20019;-78
2021/06/09 01:03:22;;;;;;;1.90;1.80;;;17.10;99.90;;;;;;5091398;28;20016;-77
2021/06/09 01:05:48;;;;;;;1.52;1.42;;;16.70;99.90;;;;;;5091938;28;20538;-76
2021/06/09 01:08:16;;;;;;;2.08;1.92;;;16.60;99.90;;;;;;5091253;28;20036;-77
2021/06/09 01:10:49;;;;;;;1.70;1.60;;;16.50;99.90;;;;;;5091428;28;20069;-74
2021/06/09 01:13:23;;;;;;;1.88;1.77;;;16.50;99.90;;;;;;5091441;28;20028;-77
2021/06/09 01:15:50;;;;;;;1.55;1.45;;;16.40;99.90;;;;;;5091129;28;20028;-77
2021/06/09 01:18:17;;;;;;;1.70;1.60;;;16.40;99.90;;;;;;5091389;28;20028;-75
2021/06/09 01:20:42;;;;;;;1.60;1.50;;;16.40;99.90;;;;;;5091407;28;20521;-76
2021/06/09 01:23:09;;;;;;;1.60;1.50;;;16.60;99.90;;;;;;5091227;28;20122;-77
2021/06/09 01:25:36;;;;;;;2.33;2.15;;;17.10;99.90;;;;;;5091180;28;20119;-77
2021/06/09 01:28:04;;;;;;;2.08;1.98;;;17.20;99.90;;;;;;5091333;28;20020;-76
2021/06/09 01:30:31;;;;;;;1.70;1.60;;;17.50;99.90;;;;;;5090379;28;20056;-76
2021/06/09 01:32:56;;;;;;;1.73;1.63;;;17.50;99.90;;;;;;5091355;28;20016;-76
2021/06/09 01:35:23;;;;;;;1.60;1.50;;;17.60;99.90;;;;;;5091364;28;20050;-77
2021/06/09 01:37:49;;;;;;;1.55;1.45;;;17.70;99.90;;;;;;5091131;28;20414;-76
2021/06/09 01:40:19;;;;;;;1.50;1.40;;;17.60;99.90;;;;;;5091236;28;20028;-78
2021/06/09 01:42:45;;;;;;;2.28;2.10;;;17.60;99.90;;;;;;5091000;28;20024;-77
2021/06/09 01:45:14;;;;;;;1.67;1.58;;;17.70;99.90;;;;;;5091113;28;20028;-78
2021/06/09 01:47:40;;;;;;;1.60;1.50;;;17.50;99.90;;;;;;5091303;28;20031;-77
2021/06/09 01:50:09;;;;;;;1.60;1.50;;;17.50;99.90;;;;;;5091274;28;20020;-79
2021/06/09 01:52:35;;;;;;;1.80;1.70;;;17.40;99.90;;;;;;5091175;28;20036;-78
2021/06/09 01:55:02;;;;;;;1.98;1.88;;;17.20;99.90;;;;;;5091421;28;20481;-79
2021/06/09 01:57:28;;;;;;;1.70;1.60;;;17.30;99.90;;;;;;5091663;28;20024;-80
2021/06/09 01:59:54;;;;;;;1.60;1.50;;;17.10;99.90;;;;;;5091065;28;20073;-80
2021/06/09 02:02:20;;;;;;;1.60;1.50;;;17.10;99.90;;;;;;5090769;28;20028;-80
2021/06/09 02:04:46;;;;;;;1.90;1.80;;;17.10;99.90;;;;;;5091378;28;20357;-79
2021/06/09 02:07:12;;;;;;;1.60;1.50;;;17.00;99.90;;;;;;5090910;28;20032;-80
2021/06/09 02:09:39;;;;;;;1.60;1.50;;;17.00;99.90;;;;;;5091334;28;20049;-80
2021/06/09 02:12:06;;;;;;;1.80;1.70;;;16.80;99.90;;;;;;5091190;28;20028;-80
2021/06/09 02:14:33;;;;;;;1.70;1.60;;;16.90;99.90;;;;;;5091033;28;20032;-79
2021/06/09 02:16:59;;;;;;;1.83;1.73;;;17.00;99.90;;;;;;5090998;28;20073;-79
2021/06/09 02:19:26;;;;;;;1.60;1.50;;;17.10;99.90;;;;;;5091331;28;20035;-77
2021/06/09 02:21:52;;;;;;;1.85;1.75;;;17.10;99.90;;;;;;5090144;28;20039;-76
2021/06/09 02:24:19;;;;;;;1.65;1.55;;;17.10;99.90;;;;;;5090594;28;20048;-76
2021/06/09 02:26:45;;;;;;;1.60;1.50;;;17.10;99.90;;;;;;5090788;28;20054;-76
2021/06/09 02:29:13;;;;;;;2.08;1.98;;;17.00;99.90;;;;;;5090896;28;20073;-77
2021/06/09 02:31:50;;;;;;;1.70;1.60;;;17.00;99.90;;;;;;5090513;28;20038;-79
2021/06/09 02:34:22;;;;;;;1.70;1.60;;;17.00;99.90;;;;;;5090920;28;20376;-79
2021/06/09 02:36:53;;;;;;;2.63;2.42;;;16.90;99.90;;;;;;5090443;28;20032;-79
2021/06/09 02:39:21;;;;;;;1.95;1.85;;;16.80;99.90;;;;;;5090409;28;20076;-80
2021/06/09 02:41:47;;;;;;;1.70;1.60;;;16.80;99.90;;;;;;5090909;28;20107;-79
2021/06/09 02:44:13;;;;;;;1.60;1.50;;;16.70;99.90;;;;;;5094657;28;20107;-78
2021/06/09 02:47:01;;;;;;;1.70;1.60;;;16.70;99.90;;;;;;5094730;28;20032;-78
2021/06/09 02:49:30;;;;;;;5.88;2.65;;;16.70;99.90;;;;;;5094245;28;20035;-77
2021/06/09 02:51:59;;;;;;;1.70;1.60;;;16.70;99.90;;;;;;5094108;28;20395;-77
2021/06/09 02:54:33;;;;;;;1.70;1.60;;;16.50;99.90;;;;;;5094242;28;20027;-77
2021/06/09 02:57:18;;;;;;;1.65;1.55;;;16.60;99.90;;;;;;5094377;28;20356;-76
2021/06/09 03:00:01;;;;;;;3.25;2.33;;;16.60;99.90;;;;;;5093712;28;20372;-77
2021/06/09 03:02:51;;;;;;;2.08;1.98;;;16.60;99.90;;;;;;5094223;28;20024;-78
2021/06/09 03:05:30;;;;;;;1.70;1.60;;;16.50;99.90;;;;;;5094127;28;20016;-79
2021/06/09 03:08:05;;;;;;;1.70;1.60;;;16.60;99.90;;;;;;5093805;28;20375;-78
2021/06/09 03:10:49;;;;;;;1.80;1.70;;;16.60;99.90;;;;;;5094157;28;20028;-78
2021/06/09 03:13:52;;;;;;;1.80;1.70;;;16.60;99.90;;;;;;5093873;28;20024;-78
2021/06/09 03:16:25;;;;;;;1.65;1.55;;;16.70;99.90;;;;;;5094079;28;20111;-79
2021/06/09 03:18:53;;;;;;;2.15;1.95;;;16.70;99.90;;;;;;5093505;28;20048;-79
2021/06/09 03:21:26;;;;;;;1.50;1.40;;;16.80;99.90;;;;;;5093857;28;20016;-79
2021/06/09 03:24:13;;;;;;;2.35;2.15;;;16.80;99.90;;;;;;5093556;28;20032;-78
2021/06/09 03:26:47;;;;;;;3.03;2.83;;;16.70;99.90;;;;;;5093684;28;20090;-77
2021/06/09 03:29:30;;;;;;;2.17;2.00;;;16.60;99.90;;;;;;5093702;28;20028;-77
2021/06/09 03:32:04;;;;;;;1.70;1.60;;;16.70;99.90;;;;;;5093936;28;20411;-78
2021/06/09 03:34:37;;;;;;;1.60;1.50;;;16.70;99.90;;;;;;5093403;28;20020;-78
2021/06/09 03:37:05;;;;;;;2.25;2.08;;;16.70;99.90;;;;;;5092995;28;20024;-77
2021/06/09 03:39:32;;;;;;;9.70;5.78;;;16.80;99.90;;;;;;5093249;28;20020;-77
2021/06/09 03:42:00;;;;;;;1.60;1.50;;;16.70;99.90;;;;;;5093231;28;20375;-77
2021/06/09 03:44:33;;;;;;;1.90;1.80;;;16.80;99.90;;;;;;5093482;28;20020;-76
2021/06/09 03:47:00;;;;;;;2.33;2.20;;;16.90;99.90;;;;;;5093531;28;20190;-77
2021/06/09 03:49:28;;;;;;;1.60;1.50;;;17.00;99.90;;;;;;5093035;28;20073;-77
2021/06/09 03:51:55;;;;;;;1.70;1.60;;;17.00;99.90;;;;;;5093219;28;20031;-76
2021/06/09 03:54:22;;;;;;;1.60;1.50;;;17.00;99.90;;;;;;5092179;28;20027;-76
2021/06/09 03:56:50;;;;;;;1.50;1.40;;;17.00;99.90;;;;;;5074631;28;20035;-77
2021/06/09 03:59:19;;;;;;;1.90;1.80;;;17.10;99.90;;;;;;5093056;28;20020;-77
2021/06/09 04:01:47;;;;;;;1.60;1.50;;;17.10;99.90;;;;;;5092861;28;20069;-75
2021/06/09 04:04:18;;;;;;;2.42;2.25;;;17.10;99.90;;;;;;5092572;28;20089;-76
2021/06/09 04:06:45;;;;;;;1.50;1.40;;;17.10;99.90;;;;;;5092887;28;20020;-76
2021/06/09 04:09:21;;;;;;;1.50;1.40;;;17.10;99.90;;;;;;5093053;28;20036;-75
2021/06/09 04:11:59;;;;;;;1.60;1.50;;;17.20;99.90;;;;;;5092804;28;20032;-76
2021/06/09 04:14:33;;;;;;;1.60;1.50;;;17.30;99.90;;;;;;5092339;28;20042;-77
2021/06/09 04:17:02;;;;;;;1.50;1.40;;;17.30;99.90;;;;;;5092586;28;20085;-76
2021/06/09 04:19:30;;;;;;;1.65;1.55;;;17.40;99.90;;;;;;5074581;28;20016;-76
2021/06/09 04:21:56;;;;;;;5.30;2.08;;;17.50;99.90;;;;;;5092135;28;20023;-76
2021/06/09 04:24:21;;;;;;;2.28;2.10;;;17.40;99.90;;;;;;5092402;28;20040;-76
2021/06/09 04:26:48;;;;;;;2.15;1.95;;;17.50;99.90;;;;;;5092592;28;20020;-76
2021/06/09 04:29:16;;;;;;;1.55;1.45;;;17.60;99.90;;;;;;5092340;28;20387;-76
2021/06/09 04:31:41;;;;;;;2.65;2.45;;;17.70;99.90;;;;;;5092228;28;20777;-75
2021/06/09 04:34:07;;;;;;;1.80;1.70;;;17.80;99.90;;;;;;5091977;28;20028;-76
2021/06/09 04:36:33;;;;;;;2.35;1.75;;;17.70;99.90;;;;;;5092082;28;20472;-76
2021/06/09 04:38:59;;;;;;;1.50;1.40;;;17.70;99.90;;;;;;5092612;28;20040;-78
2021/06/09 04:41:26;;;;;;;1.80;1.70;;;17.60;99.90;;;;;;5092106;28;20032;-79
2021/06/09 04:43:52;;;;;;;2.00;1.85;;;17.70;99.90;;;;;;5073977;28;20475;-77
2021/06/09 04:46:20;;;;;;;1.60;1.50;;;17.80;99.90;;;;;;5091918;28;20024;-76
2021/06/09 04:48:59;;;;;;;2.28;2.10;;;17.90;99.90;;;;;;5074213;28;20035;-77
2021/06/09 04:51:27;;;;;;;1.70;1.60;;;18.00;99.90;;;;;;5091712;28;20020;-78
2021/06/09 04:53:53;;;;;;;2.30;2.15;;;18.10;99.90;;;;;;5092328;28;20028;-78
2021/06/09 04:56:19;;;;;;;1.40;1.30;;;18.10;99.90;;;;;;5091772;28;20034;-79
2021/06/09 04:58:45;;;;;;;1.60;1.50;;;18.20;99.90;;;;;;5091439;28;20032;-78
2021/06/09 05:01:10;;;;;;;1.50;1.40;;;17.60;99.90;;;;;;5091762;28;20035;-75
2021/06/09 05:03:36;;;;;;;9.70;3.45;;;17.70;99.90;;;;;;5058559;28;20171;-77
2021/06/09 05:06:02;;;;;;;1.30;1.20;;;18.00;99.90;;;;;;5070620;28;20585;-79
2021/06/09 05:08:28;;;;;;;1.95;1.85;;;18.10;99.90;;;;;;5073966;28;20118;-78
2021/06/09 05:10:54;;;;;;;1.75;1.65;;;18.30;99.90;;;;;;5080991;28;20348;-77
2021/06/09 05:13:47;;;;;;;1.30;1.20;;;18.50;99.90;;;;;;5053204;28;20067;-76
2021/06/09 05:16:16;;;;;;;2.67;2.47;;;18.60;99.90;;;;;;5088219;28;20043;-76
2021/06/09 05:18:44;;;;;;;2.78;2.58;;;18.80;99.90;;;;;;5091025;28;20099;-76
2021/06/09 05:21:11;;;;;;;4.75;4.35;;;18.70;99.90;;;;;;5097934;28;20028;-76
2021/06/09 05:23:42;;;;;;;3.53;2.88;;;18.80;99.90;;;;;;5111810;28;20103;-76
2021/06/09 05:26:13;;;;;;;1.33;1.23;;;18.90;99.90;;;;;;5095375;28;20036;-77
2021/06/09 05:28:47;;;;;;;2.10;1.90;;;18.50;99.90;;;;;;5090743;28;20016;-75
2021/06/09 05:31:15;;;;;;;1.30;1.20;;;18.50;99.90;;;;;;5090693;28;20031;-76
2021/06/09 05:33:42;;;;;;;1.40;1.30;;;18.70;99.90;;;;;;5090978;28;20020;-77
2021/06/09 05:36:09;;;;;;;1.20;1.10;;;18.90;99.90;;;;;;5090628;28;20043;-77
2021/06/09 05:38:36;;;;;;;1.20;1.10;;;19.00;99.90;;;;;;5091270;28;20103;-78
2021/06/09 05:41:02;;;;;;;1.30;1.20;;;19.10;99.90;;;;;;5090590;28;20040;-76
2021/06/09 05:43:29;;;;;;;2.63;1.98;;;19.10;99.90;;;;;;5090990;28;20020;-76
2021/06/09 05:45:56;;;;;;;1.27;1.17;;;19.30;99.90;;;;;;5090805;28;20028;-78
2021/06/09 05:48:22;;;;;;;1.17;1.10;;;19.40;99.90;;;;;;5090551;28;20039;-77
2021/06/09 05:50:54;;;;;;;2.20;2.00;;;19.40;99.90;;;;;;5090635;28;20383;-78
2021/06/09 05:53:27;;;;;;;2.38;2.17;;;19.20;99.90;;;;;;5090978;28;20052;-76
2021/06/09 05:55:53;;;;;;;2.22;2.03;;;19.30;99.90;;;;;;5090825;28;20032;-77
2021/06/09 05:58:22;;;;;;;1.58;1.48;;;19.40;99.90;;;;;;5090691;28;20023;-77
2021/06/09 06:00:56;;;;;;;2.60;1.88;;;19.50;99.90;;;;;;5085980;28;20035;-87
2021/06/09 06:03:34;;;;;;;;;;;;;;;;;;;;;
2021/06/09 06:06:06;;;;;;;1.40;1.30;;;19.60;99.90;;;;;;5090564;28;20363;-81
2021/06/09 06:08:34;;;;;;;1.02;1.02;;;19.60;99.90;;;;;;5090529;28;20028;-80
2021/06/09 06:11:06;;;;;;;1.52;1.42;;;19.60;99.90;;;;;;5092330;28;20035;-74
2021/06/09 06:13:33;;;;;;;1.38;1.27;;;19.60;99.90;;;;;;5110457;28;20383;-74
2021/06/09 06:15:59;;;;;;;1.40;1.30;;;19.60;99.90;;;;;;5083911;28;20400;-74
2021/06/09 06:18:35;;;;;;;2.22;2.03;;;19.70;99.90;;;;;;5072995;28;20077;-75
2021/06/09 06:21:03;;;;;;;1.30;1.20;;;19.70;99.90;;;;;;5092455;28;20024;-77
2021/06/09 06:23:29;;;;;;;8.27;1.73;;;19.70;99.90;;;;;;5094651;28;20527;-75
2021/06/09 06:25:55;;;;;;;2.22;2.03;;;19.80;99.90;;;;;;5081276;28;20228;-78
2021/06/09 06:28:22;;;;;;;1.40;1.30;;;19.80;99.90;;;;;;5077809;28;20017;-79
2021/06/09 06:30:49;;;;;;;1.05;1.05;;;19.80;99.90;;;;;;5079947;28;20020;-79
2021/06/09 06:33:17;;;;;;;1.75;1.65;;;19.90;99.90;;;;;;5076550;28;20036;-78
2021/06/09 06:35:45;;;;;;;2.25;2.15;;;20.00;99.90;;;;;;5073615;28;20123;-77
2021/06/09 06:38:13;;;;;;;0.98;0.95;;;20.10;99.90;;;;;;5073536;28;20115;-75
2021/06/09 06:40:39;;;;;;;1.33;1.23;;;20.10;99.90;;;;;;5074923;28;20040;-76
2021/06/09 06:43:05;;;;;;;0.90;0.90;;;20.00;99.90;;;;;;5079174;28;20234;-74
2021/06/09 06:45:32;;;;;;;1.15;1.10;;;19.80;99.90;;;;;;5080317;28;20032;-74
2021/06/09 06:47:58;;;;;;;0.90;0.90;;;19.90;99.90;;;;;;5078525;28;20028;-76
2021/06/09 06:50:25;;;;;;;4.43;2.25;;;20.10;99.90;;;;;;5082271;28;20025;-75
2021/06/09 06:52:52;;;;;;;1.00;1.00;;;20.20;99.90;;;;;;5082137;28;20078;-77
2021/06/09 06:55:19;;;;;;;1.20;1.10;;;20.40;99.90;;;;;;5083389;28;20149;-76
2021/06/09 06:57:46;;;;;;;0.90;0.90;;;20.50;99.90;;;;;;5081492;28;20131;-76
2021/06/09 07:00:16;;;;;;;1.30;1.20;;;20.50;99.90;;;;;;5081429;28;20382;-75
2021/06/09 07:02:46;;;;;;;0.80;0.80;;;20.30;99.90;;;;;;5078907;28;20082;-75
2021/06/09 07:05:13;;;;;;;2.40;1.85;;;20.40;99.90;;;;;;5083068;28;20028;-77
2021/06/09 07:07:41;;;;;;;2.25;1.55;;;20.50;99.90;;;;;;5078996;28;21464;-75
2021/06/09 07:10:11;;;;;;;0.95;0.95;;;20.60;99.90;;;;;;5079184;28;20044;-74
2021/06/09 07:12:38;;;;;;;0.80;0.80;;;20.70;99.90;;;;;;5081351;28;20017;-74
2021/06/09 07:15:18;;;;;;;0.90;0.90;;;20.70;99.90;;;;;;5083482;28;20046;-75
2021/06/09 07:17:51;;;;;;;1.00;1.00;;;20.90;99.90;;;;;;5082873;28;20387;-76
2021/06/09 07:20:22;;;;;;;1.35;1.25;;;21.10;99.90;;;;;;5082731;28;20056;-77
2021/06/09 07:22:49;;;;;;;0.90;0.90;;;21.10;99.90;;;;;;5079291;28;20029;-76
2021/06/09 07:25:16;;;;;;;1.00;1.00;;;21.30;99.90;;;;;;5091193;28;20056;-75
2021/06/09 07:27:44;;;;;;;2.45;2.25;;;21.20;99.90;;;;;;5084405;28;20016;-75
2021/06/09 07:30:12;;;;;;;0.95;0.95;;;21.20;99.90;;;;;;5104254;28;20100;-75
2021/06/09 07:32:42;;;;;;;1.45;1.33;;;21.30;99.90;;;;;;5098622;28;20089;-76
2021/06/09 07:35:08;;;;;;;1.42;1.33;;;21.40;99.90;;;;;;5093549;28;20132;-77
2021/06/09 07:37:46;;;;;;;1.10;1.10;;;21.60;99.90;;;;;;5093179;28;20040;-77
2021/06/09 07:40:18;;;;;;;1.27;1.17;;;21.60;99.90;;;;;;5092932;28;20107;-77
2021/06/09 07:42:58;;;;;;;1.55;1.42;;;21.60;99.90;;;;;;5092891;28;20027;-79
2021/06/09 07:45:25;;;;;;;1.23;1.20;;;21.60;99.90;;;;;;5098568;28;20516;-77
2021/06/09 07:47:52;;;;;;;0.90;0.90;;;21.80;99.90;;;;;;5106403;28;20028;-77
2021/06/09 07:50:35;;;;;;;0.80;0.80;;;22.00;99.90;;;;;;5102125;28;20028;-76
2021/06/09 07:53:06;;;;;;;5.30;1.38;;;22.10;99.90;;;;;;5100753;28;20056;-77
2021/06/09 07:55:34;;;;;;;0.80;0.80;;;21.90;99.90;;;;;;5101023;28;20438;-77
2021/06/09 07:58:02;;;;;;;1.35;1.25;;;21.90;99.90;;;;;;5102445;28;20023;-76
2021/06/09 08:00:28;;;;;;;1.45;1.35;;;22.00;99.90;;;;;;5103344;28;20148;-77
2021/06/09 08:02:56;;;;;;;0.80;0.80;;;22.00;99.90;;;;;;5101008;28;20012;-77
2021/06/09 08:05:26;;;;;;;0.85;0.85;;;22.10;99.90;;;;;;5102219;28;20024;-77
2021/06/09 08:07:53;;;;;;;1.25;1.15;;;22.30;99.90;;;;;;5103180;28;20363;-77
2021/06/09 08:10:20;;;;;;;1.42;1.33;;;22.40;99.90;;;;;;5079494;28;20089;-76
2021/06/09 08:12:53;;;;;;;1.20;1.20;;;22.50;99.90;;;;;;5092022;28;20024;-76
2021/06/09 08:15:20;;;;;;;0.95;0.95;;;22.60;99.90;;;;;;5095924;28;20140;-77
2021/06/09 08:17:46;;;;;;;6.13;2.47;;;22.50;99.90;;;;;;5096014;28;20078;-77
2021/06/09 08:20:14;;;;;;;0.70;0.70;;;22.50;99.90;;;;;;5081074;28;20095;-77
2021/06/09 08:22:44;;;;;;;0.90;0.90;;;22.60;99.90;;;;;;5091995;28;20034;-76
2021/06/09 08:25:11;;;;;;;1.10;1.00;;;22.70;99.90;;;;;;5091767;28;21165;-84
2021/06/09 08:27:36;;;;;;;1.15;1.05;;;22.70;99.90;;;;;;5092032;28;20020;-77
2021/06/09 08:30:04;;;;;;;1.25;1.15;;;22.80;99.90;;;;;;5090737;28;20035;-75
2021/06/09 08:32:30;;;;;;;0.85;0.85;;;23.00;99.90;;;;;;5090434;28;20609;-77
2021/06/09 08:34:56;;;;;;;1.63;1.52;;;23.10;99.90;;;;;;5082613;28;20111;-79
2021/06/09 08:37:22;;;;;;;0.88;0.85;;;23.00;99.90;;;;;;5071440;28;20036;-76
2021/06/09 08:39:47;;;;;;;2.60;1.50;;;22.90;99.90;;;;;;5090743;28;20024;-78
2021/06/09 08:42:14;;;;;;;0.75;0.75;;;23.00;99.90;;;;;;5091389;28;20027;-76
2021/06/09 08:44:42;;;;;;;0.70;0.70;;;23.10;99.90;;;;;;5091650;28;20028;-77
2021/06/09 08:47:09;;;;;;;0.60;0.60;;;23.10;99.90;;;;;;5091264;28;20055;-76
2021/06/09 08:49:37;;;;;;;0.80;0.80;;;23.40;99.90;;;;;;5085336;28;20349;-75
2021/06/09 08:52:05;;;;;;;0.90;0.90;;;23.30;99.90;;;;;;5071125;28;20071;-79
2021/06/09 08:54:33;;;;;;;1.17;1.10;;;23.40;99.90;;;;;;5070887;28;20436;-79
2021/06/09 08:56:59;;;;;;;1.48;1.05;;;23.40;99.90;;;;;;5071108;28;20037;-77
2021/06/09 08:59:25;;;;;;;2.13;1.38;;;23.50;99.80;;;;;;5071197;28;20072;-78
2021/06/09 09:01:51;;;;;;;0.80;0.80;;;23.40;99.80;;;;;;5070738;28;20052;-78
2021/06/09 09:04:18;;;;;;;0.93;0.93;;;23.80;99.50;;;;;;5070773;28;20020;-79
2021/06/09 09:06:45;;;;;;;0.70;0.70;;;23.60;98.80;;;;;;5053626;28;20024;-80
2021/06/09 09:09:11;;;;;;;0.60;0.60;;;23.80;98.80;;;;;;5071207;28;20047;-81
2021/06/09 09:11:38;;;;;;;0.60;0.60;;;24.00;97.90;;;;;;5070423;28;20049;-79
2021/06/09 09:14:04;;;;;;;0.70;0.70;;;24.40;97.30;;;;;;5085080;28;20069;-76
2021/06/09 09:16:29;;;;;;;0.60;0.60;;;24.50;96.30;;;;;;5099066;28;20073;-76
2021/06/09 09:21:42;;;;;;;1.40;1.30;;;24.80;94.10;;;;;;5098397;28;20024;-75
2021/06/09 09:24:11;;;;;;;1.20;1.05;;;25.20;93.10;;;;;;5097686;28;20397;-76
2021/06/09 09:26:39;;;;;;;0.50;0.50;;;25.20;93.10;;;;;;5097262;28;20024;-79
2021/06/09 09:29:15;;;;;;;0.63;0.63;;;25.40;93.10;;;;;;5099778;28;20043;-74
2021/06/09 09:32:03;;;;;;;0.90;0.90;;;25.60;92.10;;;;;;5101090;28;20035;-76
2021/06/09 09:34:30;;;;;;;0.70;0.70;;;25.10;93.00;;;;;;5101288;28;20016;-73
2021/06/09 09:37:16;;;;;;;0.50;0.50;;;25.30;91.90;;;;;;5070986;28;20024;-75
2021/06/09 09:39:45;;;;;;;0.73;0.70;;;25.50;90.40;;;;;;5074425;28;20032;-78
2021/06/09 09:42:20;;;;;;;1.88;1.13;;;25.50;91.40;;;;;;5093462;28;20019;-78
2021/06/09 09:44:47;;;;;;;0.77;0.77;;;25.60;92.00;;;;;;5111274;28;20027;-76
2021/06/09 09:47:23;;;;;;;1.13;1.02;;;25.80;91.80;;;;;;5111304;28;20467;-76
2021/06/09 09:49:50;;;;;;;1.15;0.90;;;25.70;91.00;;;;;;5090396;28;20029;-76
2021/06/09 09:52:17;;;;;;;0.40;0.40;;;25.80;90.70;;;;;;5076418;28;20686;-76
2021/06/09 09:54:45;;;;;;;0.60;0.60;;;26.00;90.20;;;;;;5069592;28;20381;-74
2021/06/09 09:57:15;;;;;;;0.60;0.60;;;25.90;90.10;;;;;;5094742;28;20035;-74
2021/06/09 09:59:52;;;;;;;0.40;0.40;;;26.00;90.40;;;;;;5094738;28;20016;-74
2021/06/09 10:02:18;;;;;;;1.35;1.25;;;25.80;90.40;;;;;;5095027;28;20031;-76
2021/06/09 10:04:52;;;;;;;0.65;0.65;;;25.80;90.30;;;;;;5094944;28;20020;-76
2021/06/09 10:07:17;;;;;;;0.65;0.57;;;25.90;91.10;;;;;;5081631;28;20032;-75
2021/06/09 10:09:44;;;;;;;0.68;0.68;;;25.60;91.10;;;;;;5074311;28;20021;-76
2021/06/09 10:12:15;;;;;;;0.60;0.60;;;25.70;91.40;;;;;;5074943;28;20448;-77
2021/06/09 10:14:47;;;;;;;0.40;0.40;;;25.80;91.30;;;;;;5074309;28;20029;-77
2021/06/09 10:17:13;;;;;;;0.50;0.50;;;25.70;91.10;;;;;;5074768;28;20349;-76
2021/06/09 10:19:47;;;;;;;2.28;1.25;;;26.20;90.50;;;;;;5064353;28;20489;-76
2021/06/09 10:22:18;;;;;;;0.65;0.57;;;26.40;89.50;;;;;;5074820;28;20123;-77
2021/06/09 10:24:49;;;;;;;0.70;0.70;;;26.70;89.30;;;;;;5093900;28;20033;-81
2021/06/09 10:27:16;;;;;;;0.68;0.68;;;27.00;89.30;;;;;;5093030;28;20471;-77
2021/06/09 10:29:42;;;;;;;0.77;0.65;;;26.80;88.10;;;;;;5082140;28;20104;-75
2021/06/09 10:32:16;;;;;;;0.50;0.50;;;26.90;88.50;;;;;;5093023;28;20028;-79
2021/06/09 10:34:42;;;;;;;0.63;0.60;;;27.00;87.90;;;;;;5093140;28;20031;-76
2021/06/09 10:37:09;;;;;;;0.60;0.52;;;27.30;85.50;;;;;;5092222;28;20038;-77
2021/06/09 10:39:38;;;;;;;0.40;0.40;;;27.60;84.90;;;;;;5092488;28;20107;-78
2021/06/09 10:42:08;;;;;;;0.40;0.40;;;27.50;82.50;;;;;;5084043;28;20051;-80
2021/06/09 10:44:37;;;;;;;0.35;0.35;;;27.60;81.40;;;;;;5098358;28;20021;-82
2021/06/09 10:47:05;;;;;;;0.30;0.30;;;27.60;78.60;;;;;;5096325;28;20371;-81
2021/06/09 10:49:33;;;;;;;0.38;0.38;;;27.60;77.30;;;;;;5092796;28;20085;-80
2021/06/09 10:52:00;;;;;;;0.30;0.30;;;27.60;75.90;;;;;;5093025;28;20020;-80
2021/06/09 10:54:26;;;;;;;0.40;0.40;;;27.80;75.30;;;;;;5074507;28;20535;-80
2021/06/09 10:56:54;;;;;;;0.30;0.30;;;28.00;76.10;;;;;;5092784;28;20050;-81
2021/06/09 10:59:28;;;;;;;0.73;0.65;;;28.00;75.20;;;;;;5092732;28;20027;-83
2021/06/09 11:02:08;;;;;;;0.40;0.40;;;28.10;75.30;;;;;;5092292;28;20020;-82
2021/06/09 11:04:41;;;;;;;0.85;0.77;;;28.20;75.30;;;;;;5092416;28;20074;-79
2021/06/09 11:07:27;;;;;;;3.80;1.85;;;28.20;74.30;;;;;;5092597;28;20039;-80
2021/06/09 11:09:53;;;;;;;0.45;0.45;;;28.20;73.20;;;;;;5092069;28;20035;-81
2021/06/09 11:12:25;;;;;;;0.68;0.68;;;28.20;71.00;;;;;;5074029;28;20038;-79
2021/06/09 11:14:58;;;;;;;0.82;0.77;;;28.10;72.10;;;;;;5092643;28;20031;-80
2021/06/09 11:17:56;;;;;;;0.40;0.35;;;28.30;71.00;;;;;;5074695;28;20028;-79
2021/06/09 11:20:34;;;;;;;0.40;0.40;;;28.00;70.90;;;;;;5072824;28;20043;-80
2021/06/09 11:23:02;;;;;;;0.50;0.47;;;28.00;70.30;;;;;;5092116;28;20024;-80
2021/06/09 11:25:40;;;;;;;0.22;0.22;;;27.90;69.10;;;;;;5072290;28;131283;-78
2021/06/09 11:28:08;;;;;;;1.15;0.63;;;28.30;67.40;;;;;;5093507;28;20024;-79
2021/06/09 11:30:34;;;;;;;1.27;1.02;;;28.50;69.30;;;;;;5093501;28;20026;-79
2021/06/09 11:33:02;;;;;;;0.30;0.30;;;28.00;68.90;;;;;;5075224;28;20012;-77
2021/06/09 11:35:47;;;;;;;0.30;0.30;;;28.10;68.20;;;;;;5093209;28;20040;-81
2021/06/09 11:38:13;;;;;;;3.13;1.27;;;28.30;68.50;;;;;;5093577;28;20021;-78
2021/06/09 11:40:59;;;;;;;0.40;0.40;;;27.70;69.90;;;;;;5092944;28;20028;-78
2021/06/09 11:43:32;;;;;;;2.38;0.88;;;27.40;68.80;;;;;;5093113;28;20027;-82
2021/06/09 11:46:11;;;;;;;0.40;0.40;;;27.10;69.50;;;;;;5093189;28;20028;-82
2021/06/09 11:48:39;;;;;;;0.40;0.40;;;26.80;70.30;;;;;;5092746;28;20020;-84
2021/06/09 11:51:17;;;;;;;0.35;0.35;;;26.90;70.90;;;;;;5093107;28;20107;-79
2021/06/09 11:53:45;;;;;;;0.93;0.73;;;27.20;70.50;;;;;;5093318;28;20111;-85
2021/06/09 11:56:27;;;;;;;0.50;0.50;;;27.40;70.40;;;;;;5092961;28;20581;-83
2021/06/09 11:58:56;;;;;;;0.57;0.57;;;27.70;70.80;;;;;;5092543;28;20095;-78
2021/06/09 12:01:24;;;;;;;0.30;0.30;;;27.60;72.10;;;;;;5092821;28;20383;-84
2021/06/09 12:04:09;;;;;;;0.50;0.50;;;27.50;72.20;;;;;;5092670;28;20024;-85
2021/06/09 12:06:50;;;;;;;0.40;0.40;;;27.40;72.30;;;;;;5092796;28;20077;-88
2021/06/09 12:09:18;;;;;;;0.47;0.47;;;27.30;72.30;;;;;;5092374;28;20028;-86
2021/06/09 12:11:46;;;;;;;0.50;0.50;;;27.30;72.20;;;;;;5092900;28;20028;-79
2021/06/09 12:14:17;;;;;;;1.08;0.65;;;27.20;73.10;;;;;;5074685;28;20534;-79
2021/06/09 12:16:43;;;;;;;0.63;0.60;;;26.90;76.00;;;;;;5091624;28;20028;-86
2021/06/09 12:19:22;;;;;;;0.43;0.43;;;26.90;79.30;;;;;;5092573;28;20024;-81
2021/06/09 12:21:48;;;;;;;0.52;0.52;;;26.80;80.20;;;;;;5092250;28;20103;-83
2021/06/09 12:24:16;;;;;;;1.58;0.93;;;26.90;82.40;;;;;;5092787;28;20051;-87
2021/06/09 12:26:53;;;;;;;0.93;0.85;;;26.50;84.60;;;;;;5092441;28;20479;-81
2021/06/09 12:29:24;;;;;;;0.45;0.45;;;25.90;86.30;;;;;;5073995;28;20546;-79
2021/06/09 12:31:50;;;;;;;0.65;0.65;;;25.70;86.80;;;;;;5092366;28;20045;-82
2021/06/09 12:34:24;;;;;;;0.60;0.60;;;25.60;87.60;;;;;;5092420;28;20024;-83
2021/06/09 12:37:01;;;;;;;0.73;0.73;;;25.60;87.30;;;;;;5091593;28;20032;-85
2021/06/09 12:39:27;;;;;;;0.50;0.50;;;25.50;85.30;;;;;;5092421;28;20034;-78
2021/06/09 12:41:53;;;;;;;0.40;0.40;;;25.60;85.20;;;;;;5091960;28;20095;-87
2021/06/09 12:44:20;;;;;;;0.55;0.55;;;25.70;85.50;;;;;;5092206;28;20043;-84
2021/06/09 12:46:51;;;;;;;0.40;0.40;;;25.90;87.60;;;;;;5091999;28;20056;-81
2021/06/09 12:49:23;;;;;;;0.65;0.65;;;26.60;88.60;;;;;;5091929;28;20020;-79
2021/06/09 12:52:10;;;;;;;0.50;0.50;;;26.60;85.40;;;;;;5092110;28;20022;-80
2021/06/09 12:54:48;;;;;;;0.40;0.40;;;26.90;84.50;;;;;;5091578;28;20039;-79
2021/06/09 12:57:14;;;;;;;0.70;0.70;;;26.90;82.70;;;;;;5091362;28;20052;-82
2021/06/09 12:59:40;;;;;;;0.40;0.40;;;26.30;85.20;;;;;;5084965;28;20174;-83
2021/06/09 13:02:06;;;;;;;8.65;2.40;;;25.40;90.00;;;;;;5065826;28;20027;-86
2021/06/09 13:04:56;;;;;;;0.77;0.77;;;25.10;91.90;;;;;;5092343;28;20103;-84